sensor_id;sensor_type;location;lat;lon;timestamp;P1;durP1;ratioP1;P2;durP2;ratioP2
13048;SDS011;6591;51.446;5.404;2023-04-28T00:01:45;9.10;;;6.57;;
13048;SDS011;6591;51.446;5.404;2023-04-28T00:04:12;8.40;;;5.97;;
13048;SDS011;6591;51.446;5.404;2023-04-28T00:06:40;8.27;;;5.97;;
13048;SDS011;6591;51.446;5.404;2023-04-28T00:09:07;7.20;;;6.20;;
13048;SDS011;6591;51.446;5.404;2023-04-28T00:11:36;9.87;;;6.97;;
13048;SDS011;6591;51.446;5.404;2023-04-28T00:14:04;7.83;;;6.73;;
13048;SDS011;6591;51.446;5.404;2023-04-28T00:16:33;8.23;;;6.53;;
13048;SDS011;6591;51.446;5.404;2023-04-28T00:19:01;9.30;;;7.07;;
13048;SDS011;6591;51.446;5.404;2023-04-28T00:21:28;10.33;;;6.80;;
13048;SDS011;6591;51.446;5.404;2023-04-28T00:23:55;8.20;;;7.27;;
13048;SDS011;6591;51.446;5.404;2023-04-28T00:26:22;9.37;;;7.90;;
13048;SDS011;6591;51.446;5.404;2023-04-28T00:28:49;8.87;;;7.20;;
13048;SDS011;6591;51.446;5.404;2023-04-28T00:31:16;10.07;;;6.37;;
13048;SDS011;6591;51.446;5.404;2023-04-28T00:33:43;11.00;;;7.10;;
13048;SDS011;6591;51.446;5.404;2023-04-28T00:36:10;9.67;;;7.77;;
13048;SDS011;6591;51.446;5.404;2023-04-28T00:38:37;10.77;;;7.40;;
13048;SDS011;6591;51.446;5.404;2023-04-28T00:41:05;10.40;;;7.73;;
13048;SDS011;6591;51.446;5.404;2023-04-28T00:43:42;9.30;;;7.60;;
13048;SDS011;6591;51.446;5.404;2023-04-28T00:46:19;7.63;;;6.80;;
13048;SDS011;6591;51.446;5.404;2023-04-28T00:48:49;11.37;;;7.20;;
13048;SDS011;6591;51.446;5.404;2023-04-28T00:51:17;9.10;;;6.30;;
13048;SDS011;6591;51.446;5.404;2023-04-28T00:53:44;8.63;;;6.57;;
13048;SDS011;6591;51.446;5.404;2023-04-28T00:56:11;8.97;;;7.03;;
13048;SDS011;6591;51.446;5.404;2023-04-28T00:58:40;9.37;;;6.37;;
13048;SDS011;6591;51.446;5.404;2023-04-28T01:01:08;9.40;;;7.10;;
13048;SDS011;6591;51.446;5.404;2023-04-28T01:03:37;9.10;;;6.47;;
13048;SDS011;6591;51.446;5.404;2023-04-28T01:06:08;9.43;;;7.10;;
13048;SDS011;6591;51.446;5.404;2023-04-28T01:08:37;12.93;;;7.20;;
13048;SDS011;6591;51.446;5.404;2023-04-28T01:11:11;8.27;;;6.93;;
13048;SDS011;6591;51.446;5.404;2023-04-28T01:13:57;7.97;;;6.43;;
13048;SDS011;6591;51.446;5.404;2023-04-28T01:16:27;8.17;;;6.63;;
13048;SDS011;6591;51.446;5.404;2023-04-28T01:18:57;9.97;;;7.33;;
13048;SDS011;6591;51.446;5.404;2023-04-28T01:21:27;10.10;;;7.37;;
13048;SDS011;6591;51.446;5.404;2023-04-28T01:24:31;9.20;;;7.20;;
13048;SDS011;6591;51.446;5.404;2023-04-28T01:27:02;9.20;;;7.20;;
13048;SDS011;6591;51.446;5.404;2023-04-28T01:29:29;8.30;;;6.83;;
13048;SDS011;6591;51.446;5.404;2023-04-28T01:31:56;9.27;;;7.00;;
13048;SDS011;6591;51.446;5.404;2023-04-28T01:34:23;9.03;;;7.07;;
13048;SDS011;6591;51.446;5.404;2023-04-28T01:36:50;9.70;;;7.13;;
13048;SDS011;6591;51.446;5.404;2023-04-28T01:39:17;8.93;;;7.20;;
13048;SDS011;6591;51.446;5.404;2023-04-28T01:41:44;9.23;;;7.13;;
13048;SDS011;6591;51.446;5.404;2023-04-28T01:44:11;10.37;;;7.23;;
13048;SDS011;6591;51.446;5.404;2023-04-28T01:46:39;16.20;;;8.37;;
13048;SDS011;6591;51.446;5.404;2023-04-28T01:49:07;9.77;;;7.80;;
13048;SDS011;6591;51.446;5.404;2023-04-28T01:51:34;9.47;;;6.90;;
13048;SDS011;6591;51.446;5.404;2023-04-28T01:54:01;9.43;;;7.17;;
13048;SDS011;6591;51.446;5.404;2023-04-28T01:56:29;9.77;;;6.63;;
13048;SDS011;6591;51.446;5.404;2023-04-28T01:58:57;9.07;;;7.20;;
13048;SDS011;6591;51.446;5.404;2023-04-28T02:01:24;9.33;;;7.20;;
13048;SDS011;6591;51.446;5.404;2023-04-28T02:03:51;8.33;;;7.10;;
13048;SDS011;6591;51.446;5.404;2023-04-28T02:06:21;11.17;;;7.70;;
13048;SDS011;6591;51.446;5.404;2023-04-28T02:08:48;8.70;;;7.40;;
13048;SDS011;6591;51.446;5.404;2023-04-28T02:11:16;7.80;;;7.00;;
13048;SDS011;6591;51.446;5.404;2023-04-28T02:13:43;7.93;;;6.57;;
13048;SDS011;6591;51.446;5.404;2023-04-28T02:16:10;8.90;;;7.30;;
13048;SDS011;6591;51.446;5.404;2023-04-28T02:18:38;9.37;;;7.83;;
13048;SDS011;6591;51.446;5.404;2023-04-28T02:21:08;9.23;;;7.47;;
13048;SDS011;6591;51.446;5.404;2023-04-28T02:23:37;8.47;;;7.20;;
13048;SDS011;6591;51.446;5.404;2023-04-28T02:26:05;8.53;;;6.80;;
13048;SDS011;6591;51.446;5.404;2023-04-28T02:28:33;9.47;;;6.67;;
13048;SDS011;6591;51.446;5.404;2023-04-28T02:31:06;10.40;;;7.90;;
13048;SDS011;6591;51.446;5.404;2023-04-28T02:33:36;9.27;;;7.50;;
13048;SDS011;6591;51.446;5.404;2023-04-28T02:36:04;10.07;;;7.53;;
13048;SDS011;6591;51.446;5.404;2023-04-28T02:38:32;9.97;;;7.70;;
13048;SDS011;6591;51.446;5.404;2023-04-28T02:41:00;10.60;;;7.47;;
13048;SDS011;6591;51.446;5.404;2023-04-28T02:43:32;11.23;;;8.07;;
13048;SDS011;6591;51.446;5.404;2023-04-28T02:46:03;10.90;;;7.70;;
13048;SDS011;6591;51.446;5.404;2023-04-28T02:48:31;10.40;;;8.13;;
13048;SDS011;6591;51.446;5.404;2023-04-28T02:51:01;8.90;;;8.00;;
13048;SDS011;6591;51.446;5.404;2023-04-28T02:53:29;10.33;;;8.23;;
13048;SDS011;6591;51.446;5.404;2023-04-28T02:55:56;10.20;;;7.30;;
13048;SDS011;6591;51.446;5.404;2023-04-28T02:58:25;10.63;;;7.70;;
13048;SDS011;6591;51.446;5.404;2023-04-28T03:00:55;10.43;;;8.23;;
13048;SDS011;6591;51.446;5.404;2023-04-28T03:03:22;9.17;;;7.70;;
13048;SDS011;6591;51.446;5.404;2023-04-28T03:05:49;8.67;;;7.03;;
13048;SDS011;6591;51.446;5.404;2023-04-28T03:08:16;11.90;;;8.00;;
13048;SDS011;6591;51.446;5.404;2023-04-28T03:10:44;10.93;;;7.67;;
13048;SDS011;6591;51.446;5.404;2023-04-28T03:13:11;8.93;;;7.67;;
13048;SDS011;6591;51.446;5.404;2023-04-28T03:15:40;10.03;;;7.80;;
13048;SDS011;6591;51.446;5.404;2023-04-28T03:18:07;11.53;;;7.80;;
13048;SDS011;6591;51.446;5.404;2023-04-28T03:20:34;10.10;;;7.10;;
13048;SDS011;6591;51.446;5.404;2023-04-28T03:23:01;9.30;;;7.57;;
13048;SDS011;6591;51.446;5.404;2023-04-28T03:25:30;9.80;;;7.50;;
13048;SDS011;6591;51.446;5.404;2023-04-28T03:27:57;10.13;;;7.77;;
13048;SDS011;6591;51.446;5.404;2023-04-28T03:30:24;10.13;;;8.23;;
13048;SDS011;6591;51.446;5.404;2023-04-28T03:32:53;8.73;;;7.33;;
13048;SDS011;6591;51.446;5.404;2023-04-28T03:35:20;11.30;;;8.27;;
13048;SDS011;6591;51.446;5.404;2023-04-28T03:37:48;9.93;;;8.00;;
13048;SDS011;6591;51.446;5.404;2023-04-28T03:40:15;11.53;;;8.23;;
13048;SDS011;6591;51.446;5.404;2023-04-28T03:43:03;9.40;;;8.10;;
13048;SDS011;6591;51.446;5.404;2023-04-28T03:45:37;10.13;;;7.60;;
13048;SDS011;6591;51.446;5.404;2023-04-28T03:48:04;11.00;;;8.00;;
13048;SDS011;6591;51.446;5.404;2023-04-28T03:50:32;11.40;;;8.37;;
13048;SDS011;6591;51.446;5.404;2023-04-28T03:52:59;9.37;;;8.13;;
13048;SDS011;6591;51.446;5.404;2023-04-28T03:55:27;9.00;;;8.07;;
13048;SDS011;6591;51.446;5.404;2023-04-28T03:57:54;9.97;;;8.00;;
13048;SDS011;6591;51.446;5.404;2023-04-28T04:00:22;9.77;;;8.20;;
13048;SDS011;6591;51.446;5.404;2023-04-28T04:02:51;11.60;;;8.67;;
13048;SDS011;6591;51.446;5.404;2023-04-28T04:05:19;9.57;;;7.77;;
13048;SDS011;6591;51.446;5.404;2023-04-28T04:07:46;11.63;;;8.90;;
13048;SDS011;6591;51.446;5.404;2023-04-28T04:10:13;9.53;;;7.67;;
13048;SDS011;6591;51.446;5.404;2023-04-28T04:12:42;10.63;;;8.77;;
13048;SDS011;6591;51.446;5.404;2023-04-28T04:15:10;12.50;;;8.27;;
13048;SDS011;6591;51.446;5.404;2023-04-28T04:17:39;9.83;;;8.17;;
13048;SDS011;6591;51.446;5.404;2023-04-28T04:20:06;9.77;;;7.97;;
13048;SDS011;6591;51.446;5.404;2023-04-28T04:22:34;10.57;;;7.93;;
13048;SDS011;6591;51.446;5.404;2023-04-28T04:25:01;10.40;;;8.17;;
13048;SDS011;6591;51.446;5.404;2023-04-28T04:27:28;8.83;;;7.87;;
13048;SDS011;6591;51.446;5.404;2023-04-28T04:29:55;10.77;;;8.23;;
13048;SDS011;6591;51.446;5.404;2023-04-28T04:32:22;9.20;;;8.00;;
13048;SDS011;6591;51.446;5.404;2023-04-28T04:34:50;8.80;;;7.37;;
13048;SDS011;6591;51.446;5.404;2023-04-28T04:37:16;9.37;;;8.33;;
13048;SDS011;6591;51.446;5.404;2023-04-28T04:39:51;11.10;;;7.60;;
13048;SDS011;6591;51.446;5.404;2023-04-28T04:42:18;8.73;;;7.50;;
13048;SDS011;6591;51.446;5.404;2023-04-28T04:45:16;8.47;;;7.57;;
13048;SDS011;6591;51.446;5.404;2023-04-28T04:47:43;11.03;;;8.20;;
13048;SDS011;6591;51.446;5.404;2023-04-28T04:50:11;13.00;;;8.50;;
13048;SDS011;6591;51.446;5.404;2023-04-28T04:52:38;11.33;;;8.13;;
13048;SDS011;6591;51.446;5.404;2023-04-28T04:55:05;12.50;;;8.27;;
13048;SDS011;6591;51.446;5.404;2023-04-28T04:57:33;10.53;;;8.43;;
13048;SDS011;6591;51.446;5.404;2023-04-28T05:00:29;9.23;;;7.23;;
13048;SDS011;6591;51.446;5.404;2023-04-28T05:02:59;11.90;;;8.37;;
13048;SDS011;6591;51.446;5.404;2023-04-28T05:05:26;9.87;;;7.60;;
13048;SDS011;6591;51.446;5.404;2023-04-28T05:08:12;8.87;;;7.97;;
13048;SDS011;6591;51.446;5.404;2023-04-28T05:10:39;9.97;;;8.10;;
13048;SDS011;6591;51.446;5.404;2023-04-28T05:13:07;11.27;;;8.63;;
13048;SDS011;6591;51.446;5.404;2023-04-28T05:15:34;11.23;;;8.20;;
13048;SDS011;6591;51.446;5.404;2023-04-28T05:18:19;10.80;;;8.17;;
13048;SDS011;6591;51.446;5.404;2023-04-28T05:20:46;8.43;;;7.37;;
13048;SDS011;6591;51.446;5.404;2023-04-28T05:23:16;9.70;;;8.23;;
13048;SDS011;6591;51.446;5.404;2023-04-28T05:25:44;11.73;;;8.47;;
13048;SDS011;6591;51.446;5.404;2023-04-28T05:28:11;10.13;;;7.73;;
13048;SDS011;6591;51.446;5.404;2023-04-28T05:30:40;9.80;;;8.50;;
13048;SDS011;6591;51.446;5.404;2023-04-28T05:33:11;9.77;;;7.93;;
13048;SDS011;6591;51.446;5.404;2023-04-28T05:35:39;12.00;;;8.30;;
13048;SDS011;6591;51.446;5.404;2023-04-28T05:38:07;10.70;;;8.37;;
13048;SDS011;6591;51.446;5.404;2023-04-28T05:40:34;11.43;;;8.00;;
13048;SDS011;6591;51.446;5.404;2023-04-28T05:43:01;9.30;;;8.17;;
13048;SDS011;6591;51.446;5.404;2023-04-28T05:45:28;9.53;;;8.20;;
13048;SDS011;6591;51.446;5.404;2023-04-28T05:47:56;12.30;;;8.07;;
13048;SDS011;6591;51.446;5.404;2023-04-28T05:50:23;9.57;;;8.23;;
13048;SDS011;6591;51.446;5.404;2023-04-28T05:52:51;10.37;;;7.77;;
13048;SDS011;6591;51.446;5.404;2023-04-28T05:55:19;10.27;;;7.77;;
13048;SDS011;6591;51.446;5.404;2023-04-28T05:57:46;10.17;;;8.00;;
13048;SDS011;6591;51.446;5.404;2023-04-28T06:00:19;10.87;;;8.30;;
13048;SDS011;6591;51.446;5.404;2023-04-28T06:02:47;8.93;;;7.57;;
13048;SDS011;6591;51.446;5.404;2023-04-28T06:05:15;9.30;;;7.43;;
13048;SDS011;6591;51.446;5.404;2023-04-28T06:07:44;9.77;;;7.40;;
13048;SDS011;6591;51.446;5.404;2023-04-28T06:10:15;9.10;;;7.23;;
13048;SDS011;6591;51.446;5.404;2023-04-28T06:12:44;7.63;;;6.80;;
13048;SDS011;6591;51.446;5.404;2023-04-28T06:15:11;10.50;;;7.63;;
13048;SDS011;6591;51.446;5.404;2023-04-28T06:17:38;10.50;;;7.47;;
13048;SDS011;6591;51.446;5.404;2023-04-28T06:20:05;9.73;;;7.33;;
13048;SDS011;6591;51.446;5.404;2023-04-28T06:22:36;9.17;;;7.13;;
13048;SDS011;6591;51.446;5.404;2023-04-28T06:25:05;10.07;;;7.50;;
13048;SDS011;6591;51.446;5.404;2023-04-28T06:27:59;9.60;;;7.27;;
13048;SDS011;6591;51.446;5.404;2023-04-28T06:30:26;7.70;;;6.90;;
13048;SDS011;6591;51.446;5.404;2023-04-28T06:32:53;8.03;;;6.20;;
13048;SDS011;6591;51.446;5.404;2023-04-28T06:35:22;7.47;;;6.70;;
13048;SDS011;6591;51.446;5.404;2023-04-28T06:37:49;7.60;;;6.60;;
13048;SDS011;6591;51.446;5.404;2023-04-28T06:40:16;7.80;;;7.00;;
13048;SDS011;6591;51.446;5.404;2023-04-28T06:42:51;8.53;;;6.13;;
13048;SDS011;6591;51.446;5.404;2023-04-28T06:45:23;8.57;;;6.33;;
13048;SDS011;6591;51.446;5.404;2023-04-28T06:47:50;7.73;;;6.50;;
13048;SDS011;6591;51.446;5.404;2023-04-28T06:50:24;6.73;;;6.03;;
13048;SDS011;6591;51.446;5.404;2023-04-28T06:52:51;7.60;;;5.87;;
13048;SDS011;6591;51.446;5.404;2023-04-28T06:55:19;6.93;;;6.03;;
13048;SDS011;6591;51.446;5.404;2023-04-28T06:57:46;6.93;;;6.33;;
13048;SDS011;6591;51.446;5.404;2023-04-28T07:00:13;6.33;;;5.73;;
13048;SDS011;6591;51.446;5.404;2023-04-28T07:02:41;7.50;;;6.40;;
13048;SDS011;6591;51.446;5.404;2023-04-28T07:05:09;6.90;;;5.47;;
13048;SDS011;6591;51.446;5.404;2023-04-28T07:07:36;7.53;;;5.90;;
13048;SDS011;6591;51.446;5.404;2023-04-28T07:10:04;10.40;;;6.07;;
13048;SDS011;6591;51.446;5.404;2023-04-28T07:12:32;7.93;;;6.27;;
13048;SDS011;6591;51.446;5.404;2023-04-28T07:14:59;6.80;;;6.10;;
13048;SDS011;6591;51.446;5.404;2023-04-28T07:17:26;8.10;;;6.40;;
13048;SDS011;6591;51.446;5.404;2023-04-28T07:19:53;6.30;;;5.47;;
13048;SDS011;6591;51.446;5.404;2023-04-28T07:22:20;6.80;;;6.10;;
13048;SDS011;6591;51.446;5.404;2023-04-28T07:24:48;6.77;;;6.07;;
13048;SDS011;6591;51.446;5.404;2023-04-28T07:27:15;8.00;;;5.93;;
13048;SDS011;6591;51.446;5.404;2023-04-28T07:29:43;6.43;;;5.82;;
13048;SDS011;6591;51.446;5.404;2023-04-28T07:32:10;6.30;;;5.68;;
13048;SDS011;6591;51.446;5.404;2023-04-28T07:34:37;6.38;;;5.53;;
13048;SDS011;6591;51.446;5.404;2023-04-28T07:37:04;6.43;;;5.83;;
13048;SDS011;6591;51.446;5.404;2023-04-28T07:39:32;6.32;;;5.43;;
13048;SDS011;6591;51.446;5.404;2023-04-28T07:42:00;6.93;;;6.15;;
13048;SDS011;6591;51.446;5.404;2023-04-28T07:44:29;7.00;;;6.28;;
13048;SDS011;6591;51.446;5.404;2023-04-28T07:46:58;6.63;;;5.38;;
13048;SDS011;6591;51.446;5.404;2023-04-28T07:49:29;6.90;;;6.20;;
13048;SDS011;6591;51.446;5.404;2023-04-28T07:51:58;6.60;;;5.77;;
13048;SDS011;6591;51.446;5.404;2023-04-28T07:54:25;7.30;;;6.47;;
13048;SDS011;6591;51.446;5.404;2023-04-28T07:56:52;8.03;;;6.87;;
13048;SDS011;6591;51.446;5.404;2023-04-28T07:59:19;7.97;;;6.50;;
13048;SDS011;6591;51.446;5.404;2023-04-28T08:01:46;7.70;;;6.93;;
13048;SDS011;6591;51.446;5.404;2023-04-28T08:04:13;7.28;;;6.55;;
13048;SDS011;6591;51.446;5.404;2023-04-28T08:06:41;8.63;;;6.67;;
13048;SDS011;6591;51.446;5.404;2023-04-28T08:09:08;7.83;;;7.03;;
13048;SDS011;6591;51.446;5.404;2023-04-28T08:11:36;8.60;;;7.43;;
13048;SDS011;6591;51.446;5.404;2023-04-28T08:14:03;8.40;;;7.50;;
13048;SDS011;6591;51.446;5.404;2023-04-28T08:16:30;8.40;;;7.60;;
13048;SDS011;6591;51.446;5.404;2023-04-28T08:18:58;8.50;;;7.23;;
13048;SDS011;6591;51.446;5.404;2023-04-28T08:21:25;8.57;;;7.40;;
13048;SDS011;6591;51.446;5.404;2023-04-28T08:23:53;7.70;;;6.90;;
13048;SDS011;6591;51.446;5.404;2023-04-28T08:26:20;7.75;;;6.95;;
13048;SDS011;6591;51.446;5.404;2023-04-28T08:28:47;7.07;;;6.43;;
13048;SDS011;6591;51.446;5.404;2023-04-28T08:31:14;8.27;;;7.47;;
13048;SDS011;6591;51.446;5.404;2023-04-28T08:33:41;8.07;;;7.25;;
13048;SDS011;6591;51.446;5.404;2023-04-28T08:36:13;7.40;;;6.57;;
13048;SDS011;6591;51.446;5.404;2023-04-28T08:38:40;8.18;;;7.38;;
13048;SDS011;6591;51.446;5.404;2023-04-28T08:41:14;8.52;;;7.28;;
13048;SDS011;6591;51.446;5.404;2023-04-28T08:43:42;7.38;;;6.68;;
13048;SDS011;6591;51.446;5.404;2023-04-28T08:46:10;8.15;;;7.35;;
13048;SDS011;6591;51.446;5.404;2023-04-28T08:48:41;7.97;;;7.18;;
13048;SDS011;6591;51.446;5.404;2023-04-28T08:51:14;9.30;;;7.35;;
13048;SDS011;6591;51.446;5.404;2023-04-28T08:53:52;7.78;;;6.97;;
13048;SDS011;6591;51.446;5.404;2023-04-28T08:56:42;8.23;;;6.95;;
13048;SDS011;6591;51.446;5.404;2023-04-28T08:59:11;8.38;;;7.40;;
13048;SDS011;6591;51.446;5.404;2023-04-28T09:01:38;7.70;;;6.90;;
13048;SDS011;6591;51.446;5.404;2023-04-28T09:04:08;8.23;;;7.43;;
13048;SDS011;6591;51.446;5.404;2023-04-28T09:06:39;7.70;;;7.00;;
13048;SDS011;6591;51.446;5.404;2023-04-28T09:11:59;8.13;;;7.32;;
13048;SDS011;6591;51.446;5.404;2023-04-28T09:14:30;8.82;;;7.38;;
13048;SDS011;6591;51.446;5.404;2023-04-28T09:17:00;8.13;;;7.32;;
13048;SDS011;6591;51.446;5.404;2023-04-28T09:19:35;8.98;;;7.57;;
13048;SDS011;6591;51.446;5.404;2023-04-28T09:22:04;11.15;;;8.55;;
13048;SDS011;6591;51.446;5.404;2023-04-28T09:24:50;9.38;;;8.15;;
13048;SDS011;6591;51.446;5.404;2023-04-28T09:27:25;11.23;;;9.43;;
13048;SDS011;6591;51.446;5.404;2023-04-28T09:29:53;11.75;;;10.52;;
13048;SDS011;6591;51.446;5.404;2023-04-28T09:32:21;11.73;;;10.52;;
13048;SDS011;6591;51.446;5.404;2023-04-28T09:34:53;13.07;;;10.63;;
13048;SDS011;6591;51.446;5.404;2023-04-28T09:37:25;14.38;;;11.85;;
13048;SDS011;6591;51.446;5.404;2023-04-28T09:40:01;14.63;;;12.43;;
13048;SDS011;6591;51.446;5.404;2023-04-28T09:42:36;13.68;;;12.07;;
13048;SDS011;6591;51.446;5.404;2023-04-28T09:45:08;13.77;;;12.18;;
13048;SDS011;6591;51.446;5.404;2023-04-28T09:47:38;12.70;;;11.38;;
13048;SDS011;6591;51.446;5.404;2023-04-28T09:50:07;13.95;;;10.48;;
13048;SDS011;6591;51.446;5.404;2023-04-28T09:52:40;12.13;;;10.82;;
13048;SDS011;6591;51.446;5.404;2023-04-28T09:55:09;11.52;;;10.32;;
13048;SDS011;6591;51.446;5.404;2023-04-28T09:57:38;10.95;;;9.88;;
13048;SDS011;6591;51.446;5.404;2023-04-28T10:00:06;10.82;;;9.73;;
13048;SDS011;6591;51.446;5.404;2023-04-28T10:02:35;10.20;;;9.13;;
13048;SDS011;6591;51.446;5.404;2023-04-28T10:05:07;12.85;;;9.65;;
13048;SDS011;6591;51.446;5.404;2023-04-28T10:07:36;11.57;;;9.80;;
13048;SDS011;6591;51.446;5.404;2023-04-28T10:10:04;10.25;;;9.15;;
13048;SDS011;6591;51.446;5.404;2023-04-28T10:12:33;10.25;;;9.25;;
13048;SDS011;6591;51.446;5.404;2023-04-28T10:15:04;10.43;;;9.43;;
13048;SDS011;6591;51.446;5.404;2023-04-28T10:17:32;9.25;;;8.38;;
13048;SDS011;6591;51.446;5.404;2023-04-28T10:20:02;10.20;;;9.18;;
13048;SDS011;6591;51.446;5.404;2023-04-28T10:25:24;9.75;;;8.85;;
13048;SDS011;6591;51.446;5.404;2023-04-28T10:27:58;8.63;;;7.72;;
13048;SDS011;6591;51.446;5.404;2023-04-28T10:30:30;9.70;;;8.75;;
13048;SDS011;6591;51.446;5.404;2023-04-28T10:38:09;8.23;;;7.40;;
13048;SDS011;6591;51.446;5.404;2023-04-28T10:40:42;7.45;;;6.75;;
13048;SDS011;6591;51.446;5.404;2023-04-28T10:43:11;8.55;;;7.75;;
13048;SDS011;6591;51.446;5.404;2023-04-28T11:03:52;7.53;;;6.90;;
13048;SDS011;6591;51.446;5.404;2023-04-28T11:06:37;7.45;;;6.85;;
13048;SDS011;6591;51.446;5.404;2023-04-28T11:14:36;6.97;;;6.40;;
13048;SDS011;6591;51.446;5.404;2023-04-28T11:17:07;7.40;;;6.70;;
13048;SDS011;6591;51.446;5.404;2023-04-28T11:19:39;7.53;;;6.88;;
13048;SDS011;6591;51.446;5.404;2023-04-28T11:22:13;6.57;;;5.97;;
13048;SDS011;6591;51.446;5.404;2023-04-28T11:24:54;6.85;;;6.22;;
13048;SDS011;6591;51.446;5.404;2023-04-28T11:27:24;6.53;;;6.03;;
13048;SDS011;6591;51.446;5.404;2023-04-28T11:30:01;6.65;;;6.05;;
13048;SDS011;6591;51.446;5.404;2023-04-28T11:32:30;7.13;;;6.10;;
13048;SDS011;6591;51.446;5.404;2023-04-28T11:35:00;5.28;;;4.88;;
13048;SDS011;6591;51.446;5.404;2023-04-28T11:37:30;5.38;;;4.97;;
13048;SDS011;6591;51.446;5.404;2023-04-28T11:39:57;5.88;;;5.38;;
13048;SDS011;6591;51.446;5.404;2023-04-28T11:42:34;5.75;;;4.35;;
13048;SDS011;6591;51.446;5.404;2023-04-28T11:45:02;4.85;;;4.45;;
13048;SDS011;6591;51.446;5.404;2023-04-28T11:47:30;5.10;;;4.70;;
13048;SDS011;6591;51.446;5.404;2023-04-28T11:49:59;4.95;;;4.55;;
13048;SDS011;6591;51.446;5.404;2023-04-28T11:52:30;5.95;;;5.45;;
13048;SDS011;6591;51.446;5.404;2023-04-28T11:54:58;6.38;;;5.60;;
13048;SDS011;6591;51.446;5.404;2023-04-28T11:57:28;7.00;;;6.38;;
13048;SDS011;6591;51.446;5.404;2023-04-28T12:00:13;6.95;;;6.35;;
13048;SDS011;6591;51.446;5.404;2023-04-28T12:02:47;6.65;;;6.15;;
13048;SDS011;6591;51.446;5.404;2023-04-28T12:05:14;6.38;;;5.78;;
13048;SDS011;6591;51.446;5.404;2023-04-28T12:07:42;7.22;;;6.63;;
13048;SDS011;6591;51.446;5.404;2023-04-28T12:10:11;6.60;;;6.03;;
13048;SDS011;6591;51.446;5.404;2023-04-28T12:12:44;5.70;;;5.15;;
13048;SDS011;6591;51.446;5.404;2023-04-28T12:15:19;5.32;;;4.93;;
13048;SDS011;6591;51.446;5.404;2023-04-28T12:17:48;5.57;;;5.07;;
13048;SDS011;6591;51.446;5.404;2023-04-28T12:20:33;4.95;;;4.50;;
13048;SDS011;6591;51.446;5.404;2023-04-28T12:23:05;4.47;;;4.18;;
13048;SDS011;6591;51.446;5.404;2023-04-28T12:25:42;4.40;;;4.10;;
13048;SDS011;6591;51.446;5.404;2023-04-28T12:28:10;4.15;;;3.83;;
13048;SDS011;6591;51.446;5.404;2023-04-28T12:30:38;4.40;;;4.00;;
13048;SDS011;6591;51.446;5.404;2023-04-28T12:33:23;4.10;;;3.80;;
13048;SDS011;6591;51.446;5.404;2023-04-28T12:35:57;3.72;;;3.42;;
13048;SDS011;6591;51.446;5.404;2023-04-28T12:38:25;3.50;;;3.30;;
13048;SDS011;6591;51.446;5.404;2023-04-28T12:40:54;3.55;;;3.25;;
13048;SDS011;6591;51.446;5.404;2023-04-28T12:43:22;3.55;;;3.28;;
13048;SDS011;6591;51.446;5.404;2023-04-28T12:45:52;3.70;;;3.40;;
13048;SDS011;6591;51.446;5.404;2023-04-28T12:48:21;4.40;;;4.00;;
13048;SDS011;6591;51.446;5.404;2023-04-28T12:50:51;4.28;;;3.97;;
13048;SDS011;6591;51.446;5.404;2023-04-28T12:53:18;4.00;;;3.70;;
13048;SDS011;6591;51.446;5.404;2023-04-28T12:55:45;3.72;;;3.33;;
13048;SDS011;6591;51.446;5.404;2023-04-28T12:58:12;3.47;;;3.17;;
13048;SDS011;6591;51.446;5.404;2023-04-28T13:00:39;3.05;;;2.80;;
13048;SDS011;6591;51.446;5.404;2023-04-28T13:03:07;3.72;;;3.42;;
13048;SDS011;6591;51.446;5.404;2023-04-28T13:05:34;4.68;;;3.45;;
13048;SDS011;6591;51.446;5.404;2023-04-28T13:08:01;5.13;;;4.65;;
13048;SDS011;6591;51.446;5.404;2023-04-28T13:10:30;6.85;;;6.22;;
13048;SDS011;6591;51.446;5.404;2023-04-28T13:12:57;7.40;;;6.70;;
13048;SDS011;6591;51.446;5.404;2023-04-28T13:15:24;7.38;;;6.70;;
13048;SDS011;6591;51.446;5.404;2023-04-28T13:17:52;7.63;;;6.93;;
13048;SDS011;6591;51.446;5.404;2023-04-28T13:20:19;8.80;;;7.97;;
13048;SDS011;6591;51.446;5.404;2023-04-28T13:22:46;11.07;;;10.07;;
13048;SDS011;6591;51.446;5.404;2023-04-28T13:25:13;9.82;;;8.95;;
13048;SDS011;6591;51.446;5.404;2023-04-28T13:27:41;11.57;;;10.38;;
13048;SDS011;6591;51.446;5.404;2023-04-28T13:30:09;10.95;;;9.93;;
13048;SDS011;6591;51.446;5.404;2023-04-28T13:32:36;11.25;;;10.20;;
13048;SDS011;6591;51.446;5.404;2023-04-28T13:35:04;12.40;;;11.20;;
13048;SDS011;6591;51.446;5.404;2023-04-28T13:37:32;11.77;;;10.57;;
13048;SDS011;6591;51.446;5.404;2023-04-28T13:39:59;11.80;;;10.70;;
13048;SDS011;6591;51.446;5.404;2023-04-28T13:42:29;11.15;;;10.05;;
13048;SDS011;6591;51.446;5.404;2023-04-28T13:44:58;9.07;;;8.27;;
13048;SDS011;6591;51.446;5.404;2023-04-28T13:47:25;9.35;;;8.45;;
13048;SDS011;6591;51.446;5.404;2023-04-28T13:49:53;8.73;;;7.88;;
13048;SDS011;6591;51.446;5.404;2023-04-28T13:52:20;7.93;;;7.22;;
13048;SDS011;6591;51.446;5.404;2023-04-28T13:54:47;7.07;;;6.20;;
13048;SDS011;6591;51.446;5.404;2023-04-28T13:57:15;7.97;;;7.03;;
13048;SDS011;6591;51.446;5.404;2023-04-28T13:59:42;6.45;;;5.85;;
13048;SDS011;6591;51.446;5.404;2023-04-28T14:02:09;6.68;;;6.05;;
13048;SDS011;6591;51.446;5.404;2023-04-28T14:04:36;5.00;;;4.47;;
13048;SDS011;6591;51.446;5.404;2023-04-28T14:07:04;5.32;;;4.85;;
13048;SDS011;6591;51.446;5.404;2023-04-28T14:09:31;5.97;;;5.20;;
13048;SDS011;6591;51.446;5.404;2023-04-28T14:11:58;5.45;;;4.95;;
13048;SDS011;6591;51.446;5.404;2023-04-28T14:14:25;5.70;;;5.18;;
13048;SDS011;6591;51.446;5.404;2023-04-28T14:16:52;5.25;;;4.75;;
13048;SDS011;6591;51.446;5.404;2023-04-28T14:19:19;5.07;;;4.55;;
13048;SDS011;6591;51.446;5.404;2023-04-28T14:21:46;4.97;;;3.88;;
13048;SDS011;6591;51.446;5.404;2023-04-28T14:24:13;4.07;;;3.67;;
13048;SDS011;6591;51.446;5.404;2023-04-28T14:26:41;7.13;;;4.88;;
13048;SDS011;6591;51.446;5.404;2023-04-28T14:29:09;6.50;;;5.90;;
13048;SDS011;6591;51.446;5.404;2023-04-28T14:31:36;7.65;;;6.95;;
13048;SDS011;6591;51.446;5.404;2023-04-28T14:34:04;6.65;;;6.05;;
13048;SDS011;6591;51.446;5.404;2023-04-28T14:36:31;6.50;;;5.90;;
13048;SDS011;6591;51.446;5.404;2023-04-28T14:38:59;5.40;;;4.90;;
13048;SDS011;6591;51.446;5.404;2023-04-28T14:41:26;5.30;;;4.78;;
13048;SDS011;6591;51.446;5.404;2023-04-28T14:43:54;4.10;;;3.70;;
13048;SDS011;6591;51.446;5.404;2023-04-28T14:46:21;4.65;;;4.25;;
13048;SDS011;6591;51.446;5.404;2023-04-28T14:48:49;4.38;;;3.92;;
13048;SDS011;6591;51.446;5.404;2023-04-28T14:51:18;4.55;;;4.15;;
13048;SDS011;6591;51.446;5.404;2023-04-28T14:53:47;5.15;;;4.70;;
13048;SDS011;6591;51.446;5.404;2023-04-28T14:56:14;4.90;;;4.38;;
13048;SDS011;6591;51.446;5.404;2023-04-28T14:58:45;5.13;;;4.65;;
13048;SDS011;6591;51.446;5.404;2023-04-28T15:01:13;5.25;;;4.75;;
13048;SDS011;6591;51.446;5.404;2023-04-28T15:03:41;5.20;;;4.70;;
13048;SDS011;6591;51.446;5.404;2023-04-28T15:06:08;4.70;;;4.30;;
13048;SDS011;6591;51.446;5.404;2023-04-28T15:08:37;5.00;;;4.60;;
13048;SDS011;6591;51.446;5.404;2023-04-28T15:11:05;5.13;;;4.65;;
13048;SDS011;6591;51.446;5.404;2023-04-28T15:13:32;6.53;;;5.65;;
13048;SDS011;6591;51.446;5.404;2023-04-28T15:16:00;7.05;;;6.45;;
13048;SDS011;6591;51.446;5.404;2023-04-28T15:18:28;7.20;;;6.53;;
13048;SDS011;6591;51.446;5.404;2023-04-28T15:20:55;8.48;;;7.68;;
13048;SDS011;6591;51.446;5.404;2023-04-28T15:23:22;9.00;;;8.20;;
13048;SDS011;6591;51.446;5.404;2023-04-28T15:25:49;10.40;;;9.32;;
13048;SDS011;6591;51.446;5.404;2023-04-28T15:28:18;10.15;;;9.15;;
13048;SDS011;6591;51.446;5.404;2023-04-28T15:30:45;11.60;;;10.50;;
13048;SDS011;6591;51.446;5.404;2023-04-28T15:33:12;11.45;;;10.35;;
13048;SDS011;6591;51.446;5.404;2023-04-28T15:35:43;10.70;;;9.80;;
13048;SDS011;6591;51.446;5.404;2023-04-28T15:38:11;11.73;;;9.80;;
13048;SDS011;6591;51.446;5.404;2023-04-28T15:40:39;11.05;;;10.05;;
13048;SDS011;6591;51.446;5.404;2023-04-28T15:43:07;11.93;;;10.82;;
13048;SDS011;6591;51.446;5.404;2023-04-28T15:45:34;11.48;;;10.45;;